sensor_id;sensor_type;location;lat;lon;timestamp;P1;durP1;ratioP1;P2;durP2;ratioP2
5999;SDS011;3028;49.468;7.694;2023-06-22T00:01:29;5.80;;;5.30;;
5999;SDS011;3028;49.468;7.694;2023-06-22T00:03:31;5.50;;;5.00;;
5999;SDS011;3028;49.468;7.694;2023-06-22T00:05:33;8.68;;;6.25;;
5999;SDS011;3028;49.468;7.694;2023-06-22T00:07:35;6.20;;;5.80;;
5999;SDS011;3028;49.468;7.694;2023-06-22T00:09:36;6.28;;;5.85;;
5999;SDS011;3028;49.468;7.694;2023-06-22T00:11:38;7.55;;;6.95;;
5999;SDS011;3028;49.468;7.694;2023-06-22T00:13:40;7.00;;;6.47;;
5999;SDS011;3028;49.468;7.694;2023-06-22T00:15:42;6.50;;;6.00;;
5999;SDS011;3028;49.468;7.694;2023-06-22T00:17:43;7.90;;;7.30;;
5999;SDS011;3028;49.468;7.694;2023-06-22T00:19:48;6.65;;;6.15;;
5999;SDS011;3028;49.468;7.694;2023-06-22T00:21:54;7.72;;;7.07;;
5999;SDS011;3028;49.468;7.694;2023-06-22T00:23:56;9.45;;;8.65;;
5999;SDS011;3028;49.468;7.694;2023-06-22T00:25:58;7.88;;;7.28;;
5999;SDS011;3028;49.468;7.694;2023-06-22T00:28:01;9.25;;;8.18;;
5999;SDS011;3028;49.468;7.694;2023-06-22T00:30:03;10.32;;;9.02;;
5999;SDS011;3028;49.468;7.694;2023-06-22T00:32:05;8.50;;;7.80;;
5999;SDS011;3028;49.468;7.694;2023-06-22T00:34:07;7.28;;;6.78;;
5999;SDS011;3028;49.468;7.694;2023-06-22T00:36:10;8.80;;;7.57;;
5999;SDS011;3028;49.468;7.694;2023-06-22T00:38:14;7.97;;;7.22;;
5999;SDS011;3028;49.468;7.694;2023-06-22T00:40:16;7.68;;;6.63;;
5999;SDS011;3028;49.468;7.694;2023-06-22T00:42:22;6.97;;;6.45;;
5999;SDS011;3028;49.468;7.694;2023-06-22T00:44:24;7.25;;;6.60;;
5999;SDS011;3028;49.468;7.694;2023-06-22T00:46:26;6.45;;;5.85;;
5999;SDS011;3028;49.468;7.694;2023-06-22T00:48:28;6.68;;;6.18;;
5999;SDS011;3028;49.468;7.694;2023-06-22T00:50:30;7.07;;;6.57;;
5999;SDS011;3028;49.468;7.694;2023-06-22T00:52:39;7.65;;;6.93;;
5999;SDS011;3028;49.468;7.694;2023-06-22T00:54:44;6.43;;;5.93;;
5999;SDS011;3028;49.468;7.694;2023-06-22T00:56:46;6.55;;;6.05;;
5999;SDS011;3028;49.468;7.694;2023-06-22T00:58:48;7.25;;;6.55;;
5999;SDS011;3028;49.468;7.694;2023-06-22T01:00:53;7.95;;;6.65;;
5999;SDS011;3028;49.468;7.694;2023-06-22T01:02:56;7.90;;;7.30;;
5999;SDS011;3028;49.468;7.694;2023-06-22T01:04:58;7.53;;;6.93;;
5999;SDS011;3028;49.468;7.694;2023-06-22T01:07:08;8.15;;;7.55;;
5999;SDS011;3028;49.468;7.694;2023-06-22T01:09:15;7.25;;;6.65;;
5999;SDS011;3028;49.468;7.694;2023-06-22T01:11:31;7.93;;;7.35;;
5999;SDS011;3028;49.468;7.694;2023-06-22T01:16:35;7.15;;;6.45;;
5999;SDS011;3028;49.468;7.694;2023-06-22T01:18:31;7.78;;;6.97;;
5999;SDS011;3028;49.468;7.694;2023-06-22T01:20:34;8.63;;;8.02;;
5999;SDS011;3028;49.468;7.694;2023-06-22T01:22:46;8.95;;;8.25;;
5999;SDS011;3028;49.468;7.694;2023-06-22T01:25:12;7.80;;;7.30;;
5999;SDS011;3028;49.468;7.694;2023-06-22T01:29:35;8.73;;;6.95;;
5999;SDS011;3028;49.468;7.694;2023-06-22T01:31:38;7.20;;;6.70;;
5999;SDS011;3028;49.468;7.694;2023-06-22T01:33:41;7.15;;;6.45;;
5999;SDS011;3028;49.468;7.694;2023-06-22T01:35:44;7.43;;;6.82;;
5999;SDS011;3028;49.468;7.694;2023-06-22T01:37:47;7.68;;;7.03;;
5999;SDS011;3028;49.468;7.694;2023-06-22T01:39:50;10.95;;;6.43;;
5999;SDS011;3028;49.468;7.694;2023-06-22T01:41:52;6.55;;;6.13;;
5999;SDS011;3028;49.468;7.694;2023-06-22T01:43:55;7.18;;;6.60;;
5999;SDS011;3028;49.468;7.694;2023-06-22T01:45:58;6.97;;;6.47;;
5999;SDS011;3028;49.468;7.694;2023-06-22T01:48:00;6.50;;;5.90;;
5999;SDS011;3028;49.468;7.694;2023-06-22T01:50:03;7.18;;;6.53;;
5999;SDS011;3028;49.468;7.694;2023-06-22T01:52:05;7.30;;;6.63;;
5999;SDS011;3028;49.468;7.694;2023-06-22T01:54:07;7.75;;;7.10;;
5999;SDS011;3028;49.468;7.694;2023-06-22T01:56:09;7.32;;;6.57;;
5999;SDS011;3028;49.468;7.694;2023-06-22T01:58:11;7.00;;;6.40;;
5999;SDS011;3028;49.468;7.694;2023-06-22T02:00:15;7.35;;;6.63;;
5999;SDS011;3028;49.468;7.694;2023-06-22T02:02:20;6.47;;;5.97;;
5999;SDS011;3028;49.468;7.694;2023-06-22T02:04:31;6.30;;;5.90;;
5999;SDS011;3028;49.468;7.694;2023-06-22T02:06:44;6.47;;;6.00;;
5999;SDS011;3028;49.468;7.694;2023-06-22T02:08:51;5.57;;;5.18;;
5999;SDS011;3028;49.468;7.694;2023-06-22T02:10:59;6.35;;;5.88;;
5999;SDS011;3028;49.468;7.694;2023-06-22T02:13:03;5.75;;;5.35;;
5999;SDS011;3028;49.468;7.694;2023-06-22T02:15:07;6.90;;;6.20;;
5999;SDS011;3028;49.468;7.694;2023-06-22T02:17:09;6.25;;;5.85;;
5999;SDS011;3028;49.468;7.694;2023-06-22T02:19:11;6.22;;;5.72;;
5999;SDS011;3028;49.468;7.694;2023-06-22T02:21:13;6.32;;;5.82;;
5999;SDS011;3028;49.468;7.694;2023-06-22T02:23:15;6.45;;;5.85;;
5999;SDS011;3028;49.468;7.694;2023-06-22T02:25:17;5.85;;;5.35;;
5999;SDS011;3028;49.468;7.694;2023-06-22T02:27:18;8.00;;;7.40;;
5999;SDS011;3028;49.468;7.694;2023-06-22T02:29:20;6.68;;;6.10;;
5999;SDS011;3028;49.468;7.694;2023-06-22T02:31:22;8.02;;;7.43;;
5999;SDS011;3028;49.468;7.694;2023-06-22T02:33:24;7.28;;;6.72;;
5999;SDS011;3028;49.468;7.694;2023-06-22T02:35:26;7.45;;;6.85;;
5999;SDS011;3028;49.468;7.694;2023-06-22T02:37:36;6.80;;;5.93;;
5999;SDS011;3028;49.468;7.694;2023-06-22T02:39:43;6.55;;;6.03;;
5999;SDS011;3028;49.468;7.694;2023-06-22T02:41:45;6.65;;;6.15;;
5999;SDS011;3028;49.468;7.694;2023-06-22T02:43:46;6.97;;;6.43;;
5999;SDS011;3028;49.468;7.694;2023-06-22T02:45:48;7.10;;;6.45;;
5999;SDS011;3028;49.468;7.694;2023-06-22T02:47:50;6.57;;;6.07;;
5999;SDS011;3028;49.468;7.694;2023-06-22T02:49:52;6.85;;;6.25;;
5999;SDS011;3028;49.468;7.694;2023-06-22T02:51:53;6.78;;;6.18;;
5999;SDS011;3028;49.468;7.694;2023-06-22T02:53:56;6.82;;;6.32;;
5999;SDS011;3028;49.468;7.694;2023-06-22T02:55:59;6.38;;;5.78;;
5999;SDS011;3028;49.468;7.694;2023-06-22T02:58:02;5.90;;;5.40;;
5999;SDS011;3028;49.468;7.694;2023-06-22T03:00:06;6.65;;;5.90;;
5999;SDS011;3028;49.468;7.694;2023-06-22T03:02:19;6.65;;;6.15;;
5999;SDS011;3028;49.468;7.694;2023-06-22T03:04:23;6.18;;;5.72;;
5999;SDS011;3028;49.468;7.694;2023-06-22T03:06:24;6.95;;;6.35;;
5999;SDS011;3028;49.468;7.694;2023-06-22T03:08:29;6.20;;;5.80;;
5999;SDS011;3028;49.468;7.694;2023-06-22T03:10:31;6.30;;;5.63;;
5999;SDS011;3028;49.468;7.694;2023-06-22T03:12:33;7.18;;;6.45;;
5999;SDS011;3028;49.468;7.694;2023-06-22T03:14:35;7.28;;;6.78;;
5999;SDS011;3028;49.468;7.694;2023-06-22T03:16:37;9.75;;;7.47;;
5999;SDS011;3028;49.468;7.694;2023-06-22T03:18:38;6.03;;;5.63;;
5999;SDS011;3028;49.468;7.694;2023-06-22T03:20:40;6.47;;;5.97;;
5999;SDS011;3028;49.468;7.694;2023-06-22T03:22:42;7.53;;;6.90;;
5999;SDS011;3028;49.468;7.694;2023-06-22T03:24:44;6.85;;;6.28;;
5999;SDS011;3028;49.468;7.694;2023-06-22T03:26:48;6.57;;;6.10;;
5999;SDS011;3028;49.468;7.694;2023-06-22T03:28:50;5.43;;;5.10;;
5999;SDS011;3028;49.468;7.694;2023-06-22T03:30:52;6.57;;;6.07;;
5999;SDS011;3028;49.468;7.694;2023-06-22T03:32:53;7.05;;;6.55;;
5999;SDS011;3028;49.468;7.694;2023-06-22T03:34:55;6.57;;;6.07;;
5999;SDS011;3028;49.468;7.694;2023-06-22T03:37:00;6.18;;;5.78;;
5999;SDS011;3028;49.468;7.694;2023-06-22T03:39:01;6.70;;;6.10;;
5999;SDS011;3028;49.468;7.694;2023-06-22T03:41:03;6.90;;;6.40;;
5999;SDS011;3028;49.468;7.694;2023-06-22T03:43:05;8.50;;;6.55;;
5999;SDS011;3028;49.468;7.694;2023-06-22T03:45:07;4.85;;;4.55;;
5999;SDS011;3028;49.468;7.694;2023-06-22T03:47:09;6.30;;;5.82;;
5999;SDS011;3028;49.468;7.694;2023-06-22T03:49:11;6.22;;;5.72;;
5999;SDS011;3028;49.468;7.694;2023-06-22T03:51:12;5.70;;;5.30;;
5999;SDS011;3028;49.468;7.694;2023-06-22T03:53:14;7.55;;;6.90;;
5999;SDS011;3028;49.468;7.694;2023-06-22T03:55:16;6.72;;;6.15;;
5999;SDS011;3028;49.468;7.694;2023-06-22T03:57:18;6.90;;;6.40;;
5999;SDS011;3028;49.468;7.694;2023-06-22T03:59:19;6.03;;;5.55;;
5999;SDS011;3028;49.468;7.694;2023-06-22T04:01:21;5.97;;;5.57;;
5999;SDS011;3028;49.468;7.694;2023-06-22T04:03:23;6.63;;;6.13;;
5999;SDS011;3028;49.468;7.694;2023-06-22T04:05:25;6.35;;;5.95;;
5999;SDS011;3028;49.468;7.694;2023-06-22T04:07:26;6.55;;;6.15;;
5999;SDS011;3028;49.468;7.694;2023-06-22T04:09:28;6.50;;;5.88;;
5999;SDS011;3028;49.468;7.694;2023-06-22T04:11:30;6.78;;;6.18;;
5999;SDS011;3028;49.468;7.694;2023-06-22T04:13:31;6.97;;;6.38;;
5999;SDS011;3028;49.468;7.694;2023-06-22T04:15:33;6.10;;;5.68;;
5999;SDS011;3028;49.468;7.694;2023-06-22T04:17:35;5.85;;;5.38;;
5999;SDS011;3028;49.468;7.694;2023-06-22T04:19:36;6.05;;;5.65;;
5999;SDS011;3028;49.468;7.694;2023-06-22T04:21:38;7.13;;;6.63;;
5999;SDS011;3028;49.468;7.694;2023-06-22T04:23:40;6.18;;;5.78;;
5999;SDS011;3028;49.468;7.694;2023-06-22T04:25:41;7.90;;;7.22;;
5999;SDS011;3028;49.468;7.694;2023-06-22T04:27:43;7.32;;;6.72;;
5999;SDS011;3028;49.468;7.694;2023-06-22T04:29:45;6.38;;;5.90;;
5999;SDS011;3028;49.468;7.694;2023-06-22T04:31:50;8.23;;;7.60;;
5999;SDS011;3028;49.468;7.694;2023-06-22T04:33:52;8.05;;;7.38;;
5999;SDS011;3028;49.468;7.694;2023-06-22T04:35:54;7.88;;;6.82;;
5999;SDS011;3028;49.468;7.694;2023-06-22T04:37:58;8.32;;;7.72;;
5999;SDS011;3028;49.468;7.694;2023-06-22T04:40:00;10.13;;;7.40;;
5999;SDS011;3028;49.468;7.694;2023-06-22T04:42:02;9.00;;;8.30;;
5999;SDS011;3028;49.468;7.694;2023-06-22T04:44:04;6.95;;;6.45;;
5999;SDS011;3028;49.468;7.694;2023-06-22T04:46:06;7.38;;;6.88;;
5999;SDS011;3028;49.468;7.694;2023-06-22T04:48:08;8.73;;;8.10;;
5999;SDS011;3028;49.468;7.694;2023-06-22T04:50:14;8.57;;;7.97;;
5999;SDS011;3028;49.468;7.694;2023-06-22T04:52:16;10.30;;;8.77;;
5999;SDS011;3028;49.468;7.694;2023-06-22T04:54:19;7.78;;;6.88;;
5999;SDS011;3028;49.468;7.694;2023-06-22T04:56:20;7.85;;;7.35;;
5999;SDS011;3028;49.468;7.694;2023-06-22T04:58:22;7.95;;;7.25;;
5999;SDS011;3028;49.468;7.694;2023-06-22T05:00:24;8.65;;;8.02;;
5999;SDS011;3028;49.468;7.694;2023-06-22T05:02:28;8.43;;;7.72;;
5999;SDS011;3028;49.468;7.694;2023-06-22T05:04:33;8.98;;;7.43;;
5999;SDS011;3028;49.468;7.694;2023-06-22T05:06:37;9.40;;;8.60;;
5999;SDS011;3028;49.468;7.694;2023-06-22T05:08:41;8.10;;;7.32;;
5999;SDS011;3028;49.468;7.694;2023-06-22T05:10:43;9.90;;;8.95;;
5999;SDS011;3028;49.468;7.694;2023-06-22T05:13:03;8.23;;;7.63;;
5999;SDS011;3028;49.468;7.694;2023-06-22T05:15:08;8.82;;;8.23;;
5999;SDS011;3028;49.468;7.694;2023-06-22T05:17:10;8.70;;;8.05;;
5999;SDS011;3028;49.468;7.694;2023-06-22T05:19:19;10.23;;;8.50;;
5999;SDS011;3028;49.468;7.694;2023-06-22T05:21:22;9.20;;;8.45;;
5999;SDS011;3028;49.468;7.694;2023-06-22T05:23:25;11.35;;;10.45;;
5999;SDS011;3028;49.468;7.694;2023-06-22T05:25:26;10.75;;;9.77;;
5999;SDS011;3028;49.468;7.694;2023-06-22T05:27:31;11.98;;;10.88;;
5999;SDS011;3028;49.468;7.694;2023-06-22T05:29:33;10.07;;;9.40;;
5999;SDS011;3028;49.468;7.694;2023-06-22T05:31:34;13.38;;;12.15;;
5999;SDS011;3028;49.468;7.694;2023-06-22T05:33:36;11.07;;;10.23;;
5999;SDS011;3028;49.468;7.694;2023-06-22T05:35:38;12.32;;;11.52;;
5999;SDS011;3028;49.468;7.694;2023-06-22T05:37:39;12.13;;;11.27;;
5999;SDS011;3028;49.468;7.694;2023-06-22T05:39:41;12.10;;;11.20;;
5999;SDS011;3028;49.468;7.694;2023-06-22T05:41:43;9.43;;;8.77;;
5999;SDS011;3028;49.468;7.694;2023-06-22T05:43:45;12.90;;;11.63;;
5999;SDS011;3028;49.468;7.694;2023-06-22T05:45:47;12.05;;;11.15;;
5999;SDS011;3028;49.468;7.694;2023-06-22T05:47:49;13.20;;;11.75;;
5999;SDS011;3028;49.468;7.694;2023-06-22T05:49:51;14.23;;;12.05;;
5999;SDS011;3028;49.468;7.694;2023-06-22T05:51:52;12.73;;;11.82;;
5999;SDS011;3028;49.468;7.694;2023-06-22T05:53:54;12.25;;;11.35;;
5999;SDS011;3028;49.468;7.694;2023-06-22T05:55:56;12.75;;;11.55;;
5999;SDS011;3028;49.468;7.694;2023-06-22T05:57:57;12.43;;;11.57;;
5999;SDS011;3028;49.468;7.694;2023-06-22T05:59:59;12.80;;;11.75;;
5999;SDS011;3028;49.468;7.694;2023-06-22T06:02:01;11.25;;;10.38;;
5999;SDS011;3028;49.468;7.694;2023-06-22T06:04:03;12.18;;;11.23;;
5999;SDS011;3028;49.468;7.694;2023-06-22T06:06:05;11.68;;;10.70;;
5999;SDS011;3028;49.468;7.694;2023-06-22T06:08:08;12.57;;;11.50;;
5999;SDS011;3028;49.468;7.694;2023-06-22T06:10:12;12.07;;;11.07;;
5999;SDS011;3028;49.468;7.694;2023-06-22T06:12:14;12.60;;;11.48;;
5999;SDS011;3028;49.468;7.694;2023-06-22T06:14:16;12.20;;;11.23;;
5999;SDS011;3028;49.468;7.694;2023-06-22T06:16:18;11.20;;;10.30;;
5999;SDS011;3028;49.468;7.694;2023-06-22T06:18:20;12.07;;;11.23;;
5999;SDS011;3028;49.468;7.694;2023-06-22T06:20:23;12.55;;;11.50;;
5999;SDS011;3028;49.468;7.694;2023-06-22T06:22:27;10.65;;;9.85;;
5999;SDS011;3028;49.468;7.694;2023-06-22T06:24:29;11.07;;;10.13;;
5999;SDS011;3028;49.468;7.694;2023-06-22T06:26:31;12.55;;;11.40;;
5999;SDS011;3028;49.468;7.694;2023-06-22T06:28:34;10.43;;;9.63;;
5999;SDS011;3028;49.468;7.694;2023-06-22T06:30:36;9.93;;;9.23;;
5999;SDS011;3028;49.468;7.694;2023-06-22T06:32:38;9.85;;;9.05;;
5999;SDS011;3028;49.468;7.694;2023-06-22T06:34:40;10.52;;;9.60;;
5999;SDS011;3028;49.468;7.694;2023-06-22T06:36:42;11.88;;;9.45;;
5999;SDS011;3028;49.468;7.694;2023-06-22T06:38:45;10.70;;;10.00;;
5999;SDS011;3028;49.468;7.694;2023-06-22T06:40:48;8.95;;;8.35;;
5999;SDS011;3028;49.468;7.694;2023-06-22T06:42:50;9.68;;;8.75;;
5999;SDS011;3028;49.468;7.694;2023-06-22T06:44:52;10.70;;;9.35;;
5999;SDS011;3028;49.468;7.694;2023-06-22T06:46:58;10.48;;;9.50;;
5999;SDS011;3028;49.468;7.694;2023-06-22T06:49:12;8.55;;;7.90;;
5999;SDS011;3028;49.468;7.694;2023-06-22T06:51:14;7.63;;;7.13;;
5999;SDS011;3028;49.468;7.694;2023-06-22T06:53:20;7.88;;;7.28;;
5999;SDS011;3028;49.468;7.694;2023-06-22T06:55:27;8.50;;;7.82;;
5999;SDS011;3028;49.468;7.694;2023-06-22T06:57:31;8.68;;;8.07;;
5999;SDS011;3028;49.468;7.694;2023-06-22T06:59:42;8.13;;;7.32;;
5999;SDS011;3028;49.468;7.694;2023-06-22T07:01:47;8.63;;;8.00;;
5999;SDS011;3028;49.468;7.694;2023-06-22T07:03:50;8.02;;;7.32;;
5999;SDS011;3028;49.468;7.694;2023-06-22T07:05:55;8.02;;;7.32;;
5999;SDS011;3028;49.468;7.694;2023-06-22T07:08:01;7.90;;;7.30;;
5999;SDS011;3028;49.468;7.694;2023-06-22T07:10:04;8.85;;;8.10;;
5999;SDS011;3028;49.468;7.694;2023-06-22T07:12:07;8.40;;;7.70;;
5999;SDS011;3028;49.468;7.694;2023-06-22T07:14:09;8.07;;;7.47;;
5999;SDS011;3028;49.468;7.694;2023-06-22T07:16:11;7.82;;;7.22;;
5999;SDS011;3028;49.468;7.694;2023-06-22T07:18:13;7.72;;;7.13;;
5999;SDS011;3028;49.468;7.694;2023-06-22T07:20:23;8.50;;;7.80;;
5999;SDS011;3028;49.468;7.694;2023-06-22T07:22:30;7.95;;;7.13;;
5999;SDS011;3028;49.468;7.694;2023-06-22T07:24:52;8.57;;;7.88;;
5999;SDS011;3028;49.468;7.694;2023-06-22T07:26:54;6.80;;;6.20;;
5999;SDS011;3028;49.468;7.694;2023-06-22T07:28:56;7.40;;;6.22;;
5999;SDS011;3028;49.468;7.694;2023-06-22T07:31:16;6.40;;;5.80;;
5999;SDS011;3028;49.468;7.694;2023-06-22T07:33:17;8.50;;;7.53;;
5999;SDS011;3028;49.468;7.694;2023-06-22T07:35:19;7.50;;;6.85;;
5999;SDS011;3028;49.468;7.694;2023-06-22T07:37:23;9.32;;;7.05;;
5999;SDS011;3028;49.468;7.694;2023-06-22T07:39:39;7.07;;;6.40;;
5999;SDS011;3028;49.468;7.694;2023-06-22T07:41:53;6.30;;;5.80;;
5999;SDS011;3028;49.468;7.694;2023-06-22T07:44:07;5.93;;;5.43;;
5999;SDS011;3028;49.468;7.694;2023-06-22T07:46:21;6.57;;;6.07;;
5999;SDS011;3028;49.468;7.694;2023-06-22T07:48:24;9.23;;;6.10;;
5999;SDS011;3028;49.468;7.694;2023-06-22T07:50:25;8.32;;;5.63;;
5999;SDS011;3028;49.468;7.694;2023-06-22T07:52:39;5.97;;;5.47;;
5999;SDS011;3028;49.468;7.694;2023-06-22T07:54:41;6.18;;;5.68;;
5999;SDS011;3028;49.468;7.694;2023-06-22T07:56:42;7.00;;;6.40;;
5999;SDS011;3028;49.468;7.694;2023-06-22T07:58:44;9.07;;;6.88;;
5999;SDS011;3028;49.468;7.694;2023-06-22T08:00:59;6.55;;;6.05;;
5999;SDS011;3028;49.468;7.694;2023-06-22T08:03:19;7.63;;;7.03;;
5999;SDS011;3028;49.468;7.694;2023-06-22T08:05:26;7.57;;;6.88;;
5999;SDS011;3028;49.468;7.694;2023-06-22T08:07:29;7.97;;;6.47;;
5999;SDS011;3028;49.468;7.694;2023-06-22T08:09:31;7.10;;;5.97;;
5999;SDS011;3028;49.468;7.694;2023-06-22T08:11:33;9.40;;;6.10;;
5999;SDS011;3028;49.468;7.694;2023-06-22T08:13:35;8.20;;;6.78;;
5999;SDS011;3028;49.468;7.694;2023-06-22T08:15:37;8.23;;;6.72;;
5999;SDS011;3028;49.468;7.694;2023-06-22T08:17:39;7.28;;;6.68;;
5999;SDS011;3028;49.468;7.694;2023-06-22T08:19:41;6.82;;;6.32;;
5999;SDS011;3028;49.468;7.694;2023-06-22T08:21:42;6.57;;;6.07;;
5999;SDS011;3028;49.468;7.694;2023-06-22T08:23:44;6.70;;;6.10;;
5999;SDS011;3028;49.468;7.694;2023-06-22T08:25:46;7.97;;;7.28;;
5999;SDS011;3028;49.468;7.694;2023-06-22T08:27:49;7.65;;;6.45;;
5999;SDS011;3028;49.468;7.694;2023-06-22T08:29:51;6.68;;;6.07;;
5999;SDS011;3028;49.468;7.694;2023-06-22T08:31:55;6.95;;;6.22;;
5999;SDS011;3028;49.468;7.694;2023-06-22T08:33:58;6.93;;;6.43;;
5999;SDS011;3028;49.468;7.694;2023-06-22T08:35:59;7.85;;;5.82;;
5999;SDS011;3028;49.468;7.694;2023-06-22T08:38:04;8.30;;;6.70;;
5999;SDS011;3028;49.468;7.694;2023-06-22T08:40:07;8.07;;;7.18;;
5999;SDS011;3028;49.468;7.694;2023-06-22T08:42:10;7.25;;;6.00;;
5999;SDS011;3028;49.468;7.694;2023-06-22T08:44:13;7.50;;;6.80;;
5999;SDS011;3028;49.468;7.694;2023-06-22T08:46:16;6.65;;;6.05;;
5999;SDS011;3028;49.468;7.694;2023-06-22T08:48:23;5.97;;;5.57;;
5999;SDS011;3028;49.468;7.694;2023-06-22T08:50:24;6.95;;;6.43;;
5999;SDS011;3028;49.468;7.694;2023-06-22T08:52:26;7.38;;;6.78;;
5999;SDS011;3028;49.468;7.694;2023-06-22T08:54:28;6.75;;;6.20;;
5999;SDS011;3028;49.468;7.694;2023-06-22T08:56:30;6.85;;;6.30;;
5999;SDS011;3028;49.468;7.694;2023-06-22T08:58:32;6.32;;;5.82;;
5999;SDS011;3028;49.468;7.694;2023-06-22T09:00:33;5.65;;;5.22;;
5999;SDS011;3028;49.468;7.694;2023-06-22T09:02:36;6.95;;;5.70;;
5999;SDS011;3028;49.468;7.694;2023-06-22T09:04:38;5.93;;;5.43;;
5999;SDS011;3028;49.468;7.694;2023-06-22T09:06:40;5.00;;;4.60;;
5999;SDS011;3028;49.468;7.694;2023-06-22T09:08:46;6.32;;;5.03;;
5999;SDS011;3028;49.468;7.694;2023-06-22T09:10:48;5.53;;;5.07;;
5999;SDS011;3028;49.468;7.694;2023-06-22T09:12:50;5.50;;;5.05;;
5999;SDS011;3028;49.468;7.694;2023-06-22T09:14:51;6.00;;;5.50;;
5999;SDS011;3028;49.468;7.694;2023-06-22T09:16:53;6.72;;;6.10;;
5999;SDS011;3028;49.468;7.694;2023-06-22T09:18:55;5.80;;;5.35;;
5999;SDS011;3028;49.468;7.694;2023-06-22T09:20:57;6.70;;;6.18;;
5999;SDS011;3028;49.468;7.694;2023-06-22T09:22:58;5.82;;;5.32;;
5999;SDS011;3028;49.468;7.694;2023-06-22T09:25:00;6.53;;;6.00;;
5999;SDS011;3028;49.468;7.694;2023-06-22T09:27:02;6.82;;;6.22;;
5999;SDS011;3028;49.468;7.694;2023-06-22T09:29:04;8.75;;;5.53;;
5999;SDS011;3028;49.468;7.694;2023-06-22T09:31:07;6.07;;;5.57;;
5999;SDS011;3028;49.468;7.694;2023-06-22T09:33:08;7.70;;;7.10;;
5999;SDS011;3028;49.468;7.694;2023-06-22T09:35:10;5.70;;;5.25;;
5999;SDS011;3028;49.468;7.694;2023-06-22T09:37:14;5.97;;;5.47;;
5999;SDS011;3028;49.468;7.694;2023-06-22T09:39:17;7.28;;;5.68;;
5999;SDS011;3028;49.468;7.694;2023-06-22T09:41:19;5.90;;;5.38;;
5999;SDS011;3028;49.468;7.694;2023-06-22T09:43:21;5.88;;;5.47;;
5999;SDS011;3028;49.468;7.694;2023-06-22T09:45:22;6.95;;;6.45;;
5999;SDS011;3028;49.468;7.694;2023-06-22T09:47:24;6.88;;;6.25;;
5999;SDS011;3028;49.468;7.694;2023-06-22T09:49:26;5.65;;;5.25;;
5999;SDS011;3028;49.468;7.694;2023-06-22T09:51:47;6.22;;;5.72;;
5999;SDS011;3028;49.468;7.694;2023-06-22T09:53:49;5.82;;;4.97;;
5999;SDS011;3028;49.468;7.694;2023-06-22T09:55:52;6.15;;;5.53;;
5999;SDS011;3028;49.468;7.694;2023-06-22T09:58:57;6.00;;;5.50;;
5999;SDS011;3028;49.468;7.694;2023-06-22T10:01:18;6.05;;;5.43;;
5999;SDS011;3028;49.468;7.694;2023-06-22T10:03:20;4.78;;;4.38;;
5999;SDS011;3028;49.468;7.694;2023-06-22T10:05:22;6.40;;;5.90;;
5999;SDS011;3028;49.468;7.694;2023-06-22T10:07:24;5.85;;;4.90;;
5999;SDS011;3028;49.468;7.694;2023-06-22T10:09:26;5.97;;;5.43;;
5999;SDS011;3028;49.468;7.694;2023-06-22T10:11:28;5.30;;;4.65;;
5999;SDS011;3028;49.468;7.694;2023-06-22T10:13:32;6.15;;;5.65;;
5999;SDS011;3028;49.468;7.694;2023-06-22T10:15:33;5.47;;;4.97;;
5999;SDS011;3028;49.468;7.694;2023-06-22T10:17:35;11.00;;;5.13;;
5999;SDS011;3028;49.468;7.694;2023-06-22T10:19:37;5.03;;;4.63;;
5999;SDS011;3028;49.468;7.694;2023-06-22T10:21:39;7.78;;;5.05;;
5999;SDS011;3028;49.468;7.694;2023-06-22T10:23:41;5.60;;;5.05;;
5999;SDS011;3028;49.468;7.694;2023-06-22T10:25:43;5.20;;;4.72;;
5999;SDS011;3028;49.468;7.694;2023-06-22T10:27:44;5.25;;;4.70;;
5999;SDS011;3028;49.468;7.694;2023-06-22T10:29:46;5.78;;;5.07;;
5999;SDS011;3028;49.468;7.694;2023-06-22T10:31:48;4.38;;;3.97;;
5999;SDS011;3028;49.468;7.694;2023-06-22T10:33:50;4.95;;;4.50;;
5999;SDS011;3028;49.468;7.694;2023-06-22T10:35:51;5.40;;;4.88;;
5999;SDS011;3028;49.468;7.694;2023-06-22T10:37:54;5.25;;;4.85;;
5999;SDS011;3028;49.468;7.694;2023-06-22T10:39:56;4.63;;;4.22;;
5999;SDS011;3028;49.468;7.694;2023-06-22T10:41:57;7.00;;;5.13;;
5999;SDS011;3028;49.468;7.694;2023-06-22T10:43:59;10.88;;;4.93;;
5999;SDS011;3028;49.468;7.694;2023-06-22T10:46:01;9.70;;;5.13;;
5999;SDS011;3028;49.468;7.694;2023-06-22T10:48:02;5.65;;;4.22;;
5999;SDS011;3028;49.468;7.694;2023-06-22T10:50:05;6.00;;;4.68;;
5999;SDS011;3028;49.468;7.694;2023-06-22T10:52:07;8.13;;;5.20;;
5999;SDS011;3028;49.468;7.694;2023-06-22T10:54:09;10.13;;;4.40;;
5999;SDS011;3028;49.468;7.694;2023-06-22T10:56:11;6.97;;;4.50;;
5999;SDS011;3028;49.468;7.694;2023-06-22T10:58:13;5.20;;;3.97;;
5999;SDS011;3028;49.468;7.694;2023-06-22T11:00:15;5.88;;;4.78;;
5999;SDS011;3028;49.468;7.694;2023-06-22T11:02:17;4.78;;;4.38;;
5999;SDS011;3028;49.468;7.694;2023-06-22T11:04:19;6.03;;;4.00;;
5999;SDS011;3028;49.468;7.694;2023-06-22T11:06:21;4.70;;;3.80;;
5999;SDS011;3028;49.468;7.694;2023-06-22T11:08:22;6.57;;;4.47;;
5999;SDS011;3028;49.468;7.694;2023-06-22T11:10:24;5.82;;;4.43;;
5999;SDS011;3028;49.468;7.694;2023-06-22T11:12:27;4.60;;;3.55;;
5999;SDS011;3028;49.468;7.694;2023-06-22T11:14:29;5.55;;;4.53;;
5999;SDS011;3028;49.468;7.694;2023-06-22T11:16:30;8.35;;;5.25;;
5999;SDS011;3028;49.468;7.694;2023-06-22T11:18:32;4.70;;;3.80;;
5999;SDS011;3028;49.468;7.694;2023-06-22T11:20:35;6.28;;;4.70;;
5999;SDS011;3028;49.468;7.694;2023-06-22T11:22:40;6.63;;;3.92;;
5999;SDS011;3028;49.468;7.694;2023-06-22T11:24:42;4.95;;;4.38;;
5999;SDS011;3028;49.468;7.694;2023-06-22T11:26:44;4.78;;;4.13;;
5999;SDS011;3028;49.468;7.694;2023-06-22T11:28:46;5.60;;;4.78;;
5999;SDS011;3028;49.468;7.694;2023-06-22T11:30:47;5.82;;;3.70;;
5999;SDS011;3028;49.468;7.694;2023-06-22T11:32:49;6.43;;;4.50;;
5999;SDS011;3028;49.468;7.694;2023-06-22T11:34:51;6.80;;;4.63;;
5999;SDS011;3028;49.468;7.694;2023-06-22T11:36:53;3.35;;;3.05;;
5999;SDS011;3028;49.468;7.694;2023-06-22T11:38:54;6.85;;;4.43;;
5999;SDS011;3028;49.468;7.694;2023-06-22T11:40:57;6.07;;;4.55;;
5999;SDS011;3028;49.468;7.694;2023-06-22T11:42:59;4.70;;;4.22;;
5999;SDS011;3028;49.468;7.694;2023-06-22T11:45:01;5.43;;;4.28;;
5999;SDS011;3028;49.468;7.694;2023-06-22T11:47:03;7.32;;;4.63;;
5999;SDS011;3028;49.468;7.694;2023-06-22T11:49:05;6.22;;;4.43;;
5999;SDS011;3028;49.468;7.694;2023-06-22T11:51:07;6.38;;;4.97;;
5999;SDS011;3028;49.468;7.694;2023-06-22T11:53:09;4.90;;;4.00;;
5999;SDS011;3028;49.468;7.694;2023-06-22T11:55:11;7.25;;;4.30;;
5999;SDS011;3028;49.468;7.694;2023-06-22T11:57:13;5.40;;;4.22;;
5999;SDS011;3028;49.468;7.694;2023-06-22T11:59:14;4.55;;;4.07;;
5999;SDS011;3028;49.468;7.694;2023-06-22T12:01:16;9.43;;;5.18;;
5999;SDS011;3028;49.468;7.694;2023-06-22T12:03:18;6.90;;;3.97;;
5999;SDS011;3028;49.468;7.694;2023-06-22T12:05:21;10.82;;;4.07;;
5999;SDS011;3028;49.468;7.694;2023-06-22T12:07:23;16.70;;;4.85;;
5999;SDS011;3028;49.468;7.694;2023-06-22T12:09:25;5.82;;;3.65;;
5999;SDS011;3028;49.468;7.694;2023-06-22T12:11:30;7.72;;;4.47;;
5999;SDS011;3028;49.468;7.694;2023-06-22T12:13:32;4.65;;;2.88;;
5999;SDS011;3028;49.468;7.694;2023-06-22T12:15:33;8.13;;;3.88;;
5999;SDS011;3028;49.468;7.694;2023-06-22T12:17:35;5.55;;;3.60;;
5999;SDS011;3028;49.468;7.694;2023-06-22T12:19:37;4.72;;;3.90;;
5999;SDS011;3028;49.468;7.694;2023-06-22T12:21:39;5.85;;;3.65;;
5999;SDS011;3028;49.468;7.694;2023-06-22T12:23:42;7.45;;;3.95;;
5999;SDS011;3028;49.468;7.694;2023-06-22T12:25:44;4.93;;;3.67;;
5999;SDS011;3028;49.468;7.694;2023-06-22T12:27:46;9.52;;;4.43;;
5999;SDS011;3028;49.468;7.694;2023-06-22T12:29:48;5.05;;;3.78;;
5999;SDS011;3028;49.468;7.694;2023-06-22T12:31:49;7.65;;;4.22;;
5999;SDS011;3028;49.468;7.694;2023-06-22T12:33:52;7.60;;;5.38;;
5999;SDS011;3028;49.468;7.694;2023-06-22T12:35:54;9.60;;;4.25;;
5999;SDS011;3028;49.468;7.694;2023-06-22T12:37:56;7.22;;;4.10;;
5999;SDS011;3028;49.468;7.694;2023-06-22T12:39:58;6.25;;;3.95;;
5999;SDS011;3028;49.468;7.694;2023-06-22T12:41:59;6.32;;;3.75;;
5999;SDS011;3028;49.468;7.694;2023-06-22T12:44:01;6.88;;;4.00;;
5999;SDS011;3028;49.468;7.694;2023-06-22T12:46:03;5.20;;;4.15;;
5999;SDS011;3028;49.468;7.694;2023-06-22T12:48:05;7.10;;;3.95;;
5999;SDS011;3028;49.468;7.694;2023-06-22T12:50:07;6.85;;;4.10;;